Forside
METAR-TAF:

METAR-TAF

Lufthavne :

Yellowknife, Northwest Territories, Canada

Breddekreds: 62-28N, længdekreds: 114-27W, højde: 205 m

Aktuelle vejr

Denne rapport blev lavet for 59 minutter siden, kl. 16:00 UTC
Vind 7 kt fra nordøst
Temperatur -4°C
Fugtighed 93%
Tryk 1013 hPa
Sigt: 24.1 km
Nogle få skyer i en højde af 24000 ft

METAR: CYZF 231600Z 04007KT 15SM FEW240 M04/M05 A2991 RMK CI1 FROIN SLP146

Tid: 10:59 (16:59 UTC)

Vejrudsigter

Denne rapport blev lavet for 5 timer og 20 minutter siden, kl. 11:39 UTC
Foreløbig gælder fra 23 på 12 UTC til 24 på 12 UTC
Vind 8 kt fra øst
Sigt: 10 km
Spredte skyer i en højde af 11000 ft
Brudte skyer i en højde af 24000 ft

TAF: CYZF 231139Z 2312/2412 08008KT P6SM SCT110 BKN240 RMK NXT FCST BY 231800Z

Vejrobservationer og prognoser fra mere end 4000 lufthavne (METAR og TAF).

De gule og røde prikker repræsenterer de meteorologiske stationer.

Flyt musen over at se navnet på stationen.

Så klik over at se vejr observationer og prognoser.

At skifte det kort: Klik på de grønne knapper med et sort kors for at zoome ind; på den grønne knap med en bindestreg for at zoome ud; eller på de grønne pile for tilstødende kort.


METAR-TAF: